sensor_id;sensor_type;location;lat;lon;timestamp;pressure;altitude;pressure_sealevel;temperature;humidity
22311;BME280;11323;49.610;11.016;2024-01-11T00:03:52;99309.59;;;-1.67;61.93
22311;BME280;11323;49.610;11.016;2024-01-11T00:08:53;99302.25;;;-1.73;62.06
22311;BME280;11323;49.610;11.016;2024-01-11T00:13:54;99312.31;;;-1.78;62.23
22311;BME280;11323;49.610;11.016;2024-01-11T00:18:55;99316.88;;;-1.80;62.09
22311;BME280;11323;49.610;11.016;2024-01-11T00:23:56;99311.50;;;-1.88;61.47
22311;BME280;11323;49.610;11.016;2024-01-11T00:28:57;99312.59;;;-1.91;61.86
22311;BME280;11323;49.610;11.016;2024-01-11T00:33:58;99318.94;;;-1.93;61.86
22311;BME280;11323;49.610;11.016;2024-01-11T00:38:59;99319.22;;;-1.96;61.98
22311;BME280;11323;49.610;11.016;2024-01-11T00:44:00;99318.66;;;-2.00;61.89
22311;BME280;11323;49.610;11.016;2024-01-11T00:49:01;99318.06;;;-2.03;62.13
22311;BME280;11323;49.610;11.016;2024-01-11T00:54:03;99322.91;;;-2.08;62.59
22311;BME280;11323;49.610;11.016;2024-01-11T00:59:04;99328.66;;;-2.14;62.21
22311;BME280;11323;49.610;11.016;2024-01-11T01:04:05;99328.94;;;-2.17;62.09
22311;BME280;11323;49.610;11.016;2024-01-11T01:09:06;99328.25;;;-2.19;62.30
22311;BME280;11323;49.610;11.016;2024-01-11T01:14:06;99329.19;;;-2.20;62.75
22311;BME280;11323;49.610;11.016;2024-01-11T01:19:08;99326.84;;;-2.23;62.91
22311;BME280;11323;49.610;11.016;2024-01-11T01:24:08;99332.09;;;-2.23;62.28
22311;BME280;11323;49.610;11.016;2024-01-11T01:29:10;99335.94;;;-2.27;62.77
22311;BME280;11323;49.610;11.016;2024-01-11T01:34:11;99336.19;;;-2.30;62.22
22311;BME280;11323;49.610;11.016;2024-01-11T01:39:13;99333.16;;;-2.35;62.32
22311;BME280;11323;49.610;11.016;2024-01-11T01:44:14;99330.34;;;-2.43;62.60
22311;BME280;11323;49.610;11.016;2024-01-11T01:49:15;99333.22;;;-2.46;62.87
22311;BME280;11323;49.610;11.016;2024-01-11T01:54:19;99334.19;;;-2.47;63.27
22311;BME280;11323;49.610;11.016;2024-01-11T01:59:22;99334.19;;;-2.47;62.95
22311;BME280;11323;49.610;11.016;2024-01-11T02:04:25;99325.88;;;-2.52;63.00
22311;BME280;11323;49.610;11.016;2024-01-11T02:09:26;99316.47;;;-2.55;63.28
22311;BME280;11323;49.610;11.016;2024-01-11T02:14:28;99319.22;;;-2.56;62.96
22311;BME280;11323;49.610;11.016;2024-01-11T02:19:30;99320.88;;;-2.55;62.88
22311;BME280;11323;49.610;11.016;2024-01-11T02:24:31;99331.38;;;-2.55;63.45
22311;BME280;11323;49.610;11.016;2024-01-11T02:29:32;99321.16;;;-2.58;62.98
22311;BME280;11323;49.610;11.016;2024-01-11T02:34:33;99321.16;;;-2.58;63.25
22311;BME280;11323;49.610;11.016;2024-01-11T02:39:35;99322.22;;;-2.61;62.95
22311;BME280;11323;49.610;11.016;2024-01-11T02:44:36;99319.03;;;-2.64;62.94
22311;BME280;11323;49.610;11.016;2024-01-11T02:49:37;99319.31;;;-2.67;63.91
22311;BME280;11323;49.610;11.016;2024-01-11T02:54:38;99322.19;;;-2.70;63.82
22311;BME280;11323;49.610;11.016;2024-01-11T02:59:40;99315.53;;;-2.75;63.79
22311;BME280;11323;49.610;11.016;2024-01-11T03:04:41;99312.22;;;-2.77;63.91
22311;BME280;11323;49.610;11.016;2024-01-11T03:09:42;99310.81;;;-2.81;62.74
22311;BME280;11323;49.610;11.016;2024-01-11T03:14:43;99310.81;;;-2.81;63.95
22311;BME280;11323;49.610;11.016;2024-01-11T03:19:44;99311.22;;;-2.85;62.75
22311;BME280;11323;49.610;11.016;2024-01-11T03:24:45;99309.66;;;-2.88;63.82
22311;BME280;11323;49.610;11.016;2024-01-11T03:29:46;99307.41;;;-2.92;64.37
22311;BME280;11323;49.610;11.016;2024-01-11T03:34:47;99298.03;;;-2.95;63.31
22311;BME280;11323;49.610;11.016;2024-01-11T03:39:48;99301.59;;;-2.96;63.96
22311;BME280;11323;49.610;11.016;2024-01-11T03:44:49;99296.63;;;-2.99;63.00
22311;BME280;11323;49.610;11.016;2024-01-11T03:49:50;99307.34;;;-3.02;63.50
22311;BME280;11323;49.610;11.016;2024-01-11T03:54:51;99305.72;;;-3.03;64.30
22311;BME280;11323;49.610;11.016;2024-01-11T03:59:52;99299.31;;;-3.10;63.25
22311;BME280;11323;49.610;11.016;2024-01-11T04:04:52;99298.50;;;-3.10;63.76
22311;BME280;11323;49.610;11.016;2024-01-11T04:09:54;99318.88;;;-3.14;64.45
22311;BME280;11323;49.610;11.016;2024-01-11T04:14:55;99300.91;;;-3.18;63.69
22311;BME280;11323;49.610;11.016;2024-01-11T04:19:56;99308.91;;;-3.20;64.12
22311;BME280;11323;49.610;11.016;2024-01-11T04:24:57;99313.66;;;-3.25;64.07
22311;BME280;11323;49.610;11.016;2024-01-11T04:29:58;99312.97;;;-3.27;63.75
22311;BME280;11323;49.610;11.016;2024-01-11T04:34:59;99330.84;;;-3.32;63.13
22311;BME280;11323;49.610;11.016;2024-01-11T04:40:00;99332.50;;;-3.31;63.26
22311;BME280;11323;49.610;11.016;2024-01-11T04:45:01;99330.84;;;-3.32;63.58
22311;BME280;11323;49.610;11.016;2024-01-11T04:50:02;99325.63;;;-3.32;64.22
22311;BME280;11323;49.610;11.016;2024-01-11T04:55:03;99325.88;;;-3.35;63.21
22311;BME280;11323;49.610;11.016;2024-01-11T05:00:05;99315.84;;;-3.30;64.33
22311;BME280;11323;49.610;11.016;2024-01-11T05:05:06;99318.91;;;-3.25;63.11
22311;BME280;11323;49.610;11.016;2024-01-11T05:10:08;99312.03;;;-3.26;64.36
22311;BME280;11323;49.610;11.016;2024-01-11T05:15:09;99323.56;;;-3.28;64.62
22311;BME280;11323;49.610;11.016;2024-01-11T05:20:11;99324.19;;;-3.36;63.90
22311;BME280;11323;49.610;11.016;2024-01-11T05:25:12;99317.31;;;-3.37;64.00
22311;BME280;11323;49.610;11.016;2024-01-11T05:30:14;99321.13;;;-3.41;63.25
22311;BME280;11323;49.610;11.016;2024-01-11T05:35:15;99308.03;;;-3.41;64.75
22311;BME280;11323;49.610;11.016;2024-01-11T05:40:16;99320.88;;;-3.38;64.38
22311;BME280;11323;49.610;11.016;2024-01-11T05:45:17;99326.38;;;-3.41;63.81
22311;BME280;11323;49.610;11.016;2024-01-11T05:50:18;99338.28;;;-3.37;64.75
22311;BME280;11323;49.610;11.016;2024-01-11T05:55:19;99349.25;;;-3.43;63.90
22311;BME280;11323;49.610;11.016;2024-01-11T06:00:21;99340.69;;;-3.45;64.79
22311;BME280;11323;49.610;11.016;2024-01-11T06:05:23;99337.56;;;-3.50;64.91
22311;BME280;11323;49.610;11.016;2024-01-11T06:10:25;99334.75;;;-3.58;63.77
22311;BME280;11323;49.610;11.016;2024-01-11T06:15:25;99353.19;;;-3.59;63.99
22311;BME280;11323;49.610;11.016;2024-01-11T06:20:26;99352.63;;;-3.63;64.43
22311;BME280;11323;49.610;11.016;2024-01-11T06:25:27;61327.38;;;-141.32;100.00
22311;BME280;11323;49.610;11.016;2024-01-11T06:30:28;61327.38;;;-141.32;100.00
22311;BME280;11323;49.610;11.016;2024-01-11T06:35:29;61327.38;;;-141.32;100.00
22311;BME280;11323;49.610;11.016;2024-01-11T06:40:31;61327.38;;;-141.32;100.00
22311;BME280;11323;49.610;11.016;2024-01-11T06:45:32;61327.38;;;-141.32;100.00
22311;BME280;11323;49.610;11.016;2024-01-11T06:50:33;61327.38;;;-141.32;100.00
22311;BME280;11323;49.610;11.016;2024-01-11T06:55:34;61327.38;;;-141.32;100.00
22311;BME280;11323;49.610;11.016;2024-01-11T07:00:35;61327.38;;;-141.32;100.00
22311;BME280;11323;49.610;11.016;2024-01-11T07:05:37;61327.38;;;-141.32;100.00
22311;BME280;11323;49.610;11.016;2024-01-11T07:10:38;61327.38;;;-141.32;nan
22311;BME280;11323;49.610;11.016;2024-01-11T07:15:39;99396.88;;;-2.86;63.54
22311;BME280;11323;49.610;11.016;2024-01-11T07:20:40;99398.34;;;-2.93;63.71
22311;BME280;11323;49.610;11.016;2024-01-11T07:25:41;99394.63;;;-2.90;63.39
22311;BME280;11323;49.610;11.016;2024-01-11T07:30:42;99415.72;;;-2.92;64.20
22311;BME280;11323;49.610;11.016;2024-01-11T07:35:43;99424.94;;;-2.97;63.68
22311;BME280;11323;49.610;11.016;2024-01-11T07:40:46;99430.69;;;-3.03;64.81
22311;BME280;11323;49.610;11.016;2024-01-11T07:45:47;99437.59;;;-3.02;63.89
22311;BME280;11323;49.610;11.016;2024-01-11T07:50:49;99429.59;;;-3.01;64.40
22311;BME280;11323;49.610;11.016;2024-01-11T07:55:50;99440.41;;;-2.94;63.61
22311;BME280;11323;49.610;11.016;2024-01-11T08:00:51;99443.81;;;-2.83;64.04
22311;BME280;11323;49.610;11.016;2024-01-11T08:05:52;99448.75;;;-2.68;64.05
22311;BME280;11323;49.610;11.016;2024-01-11T08:10:53;99447.06;;;-2.58;64.01
22311;BME280;11323;49.610;11.016;2024-01-11T08:15:55;99440.59;;;-2.54;63.97
22311;BME280;11323;49.610;11.016;2024-01-11T08:20:58;99433.88;;;-2.47;64.31
22311;BME280;11323;49.610;11.016;2024-01-11T08:25:59;99420.94;;;-2.39;63.52
22311;BME280;11323;49.610;11.016;2024-01-11T08:31:00;99429.28;;;-2.34;64.19
22311;BME280;11323;49.610;11.016;2024-01-11T08:36:01;99422.53;;;-2.27;64.46
22311;BME280;11323;49.610;11.016;2024-01-11T08:41:04;99403.91;;;-2.24;63.67
22311;BME280;11323;49.610;11.016;2024-01-11T08:46:05;99399.81;;;-2.17;63.53
22311;BME280;11323;49.610;11.016;2024-01-11T08:51:06;99393.34;;;-2.13;64.03
22311;BME280;11323;49.610;11.016;2024-01-11T08:56:07;99397.63;;;-2.12;64.20
22311;BME280;11323;49.610;11.016;2024-01-11T09:01:08;99411.19;;;-2.07;63.59
22311;BME280;11323;49.610;11.016;2024-01-11T09:06:10;99412.56;;;-2.03;63.25
22311;BME280;11323;49.610;11.016;2024-01-11T09:11:12;99409.56;;;-1.99;63.78
22311;BME280;11323;49.610;11.016;2024-01-11T09:16:16;99412.66;;;-1.94;63.65
22311;BME280;11323;49.610;11.016;2024-01-11T09:21:17;99423.44;;;-1.87;63.77
22311;BME280;11323;49.610;11.016;2024-01-11T09:26:18;99442.00;;;-1.79;63.16
22311;BME280;11323;49.610;11.016;2024-01-11T09:31:19;99469.13;;;-1.69;63.14
22311;BME280;11323;49.610;11.016;2024-01-11T09:36:20;99449.53;;;-1.65;63.26
22311;BME280;11323;49.610;11.016;2024-01-11T09:41:21;99428.53;;;-1.55;63.00
22311;BME280;11323;49.610;11.016;2024-01-11T09:46:24;61327.38;;;-141.32;100.00
22311;BME280;11323;49.610;11.016;2024-01-11T09:51:26;61327.38;;;-141.32;100.00
22311;BME280;11323;49.610;11.016;2024-01-11T09:56:28;61327.38;;;-141.32;100.00
22311;BME280;11323;49.610;11.016;2024-01-11T10:01:29;61327.38;;;-141.32;100.00
22311;BME280;11323;49.610;11.016;2024-01-11T10:06:32;61327.38;;;-141.32;100.00
22311;BME280;11323;49.610;11.016;2024-01-11T10:11:37;61327.38;;;-141.32;100.00
22311;BME280;11323;49.610;11.016;2024-01-11T10:16:38;61327.38;;;-141.32;100.00
22311;BME280;11323;49.610;11.016;2024-01-11T10:21:39;61327.38;;;-141.32;100.00
22311;BME280;11323;49.610;11.016;2024-01-11T10:26:43;61327.38;;;-141.32;100.00
22311;BME280;11323;49.610;11.016;2024-01-11T10:31:45;61327.38;;;-141.32;100.00
22311;BME280;11323;49.610;11.016;2024-01-11T10:36:47;61327.38;;;-141.32;100.00
22311;BME280;11323;49.610;11.016;2024-01-11T10:41:54;61327.38;;;-141.32;100.00
22311;BME280;11323;49.610;11.016;2024-01-11T10:46:58;61327.38;;;-141.32;100.00
22311;BME280;11323;49.610;11.016;2024-01-11T10:52:03;61327.38;;;-141.32;100.00
22311;BME280;11323;49.610;11.016;2024-01-11T10:57:10;61327.38;;;-141.32;100.00
22311;BME280;11323;49.610;11.016;2024-01-11T11:02:14;99428.53;;;-1.55;63.00
22311;BME280;11323;49.610;11.016;2024-01-11T11:07:18;99389.81;;;-0.20;62.09
22311;BME280;11323;49.610;11.016;2024-01-11T11:12:20;99374.53;;;-0.16;62.12
22311;BME280;11323;49.610;11.016;2024-01-11T11:32:46;99359.63;;;0.02;62.07
22311;BME280;11323;49.610;11.016;2024-01-11T11:37:47;99367.25;;;0.05;62.10
22311;BME280;11323;49.610;11.016;2024-01-11T11:42:51;99372.22;;;0.08;61.80
22311;BME280;11323;49.610;11.016;2024-01-11T11:47:52;99372.63;;;0.13;61.64
22311;BME280;11323;49.610;11.016;2024-01-11T11:52:55;99364.41;;;0.16;61.71
22311;BME280;11323;49.610;11.016;2024-01-11T11:57:59;99358.19;;;0.17;61.73
22311;BME280;11323;49.610;11.016;2024-01-11T12:03:02;99355.66;;;0.25;61.69
22311;BME280;11323;49.610;11.016;2024-01-11T12:08:04;99351.28;;;0.34;61.53
22311;BME280;11323;49.610;11.016;2024-01-11T12:13:06;99375.69;;;0.36;61.47
22311;BME280;11323;49.610;11.016;2024-01-11T12:18:07;99398.00;;;0.41;61.35
22311;BME280;11323;49.610;11.016;2024-01-11T12:23:08;99331.22;;;0.50;61.48
22311;BME280;11323;49.610;11.016;2024-01-11T12:28:10;99342.31;;;0.54;61.28
22311;BME280;11323;49.610;11.016;2024-01-11T12:33:11;99346.16;;;0.59;61.98
22311;BME280;11323;49.610;11.016;2024-01-11T12:38:12;99329.72;;;0.65;60.88
22311;BME280;11323;49.610;11.016;2024-01-11T12:43:14;99327.31;;;0.72;60.97
22311;BME280;11323;49.610;11.016;2024-01-11T12:48:17;99331.31;;;0.76;61.07
22311;BME280;11323;49.610;11.016;2024-01-11T12:53:19;99312.03;;;0.75;60.74
22311;BME280;11323;49.610;11.016;2024-01-11T12:58:22;99325.28;;;0.83;60.99
22311;BME280;11323;49.610;11.016;2024-01-11T13:03:25;99325.34;;;0.91;60.92
22311;BME280;11323;49.610;11.016;2024-01-11T13:08:28;99311.41;;;0.99;60.60
22311;BME280;11323;49.610;11.016;2024-01-11T13:13:29;99315.41;;;1.03;61.00
22311;BME280;11323;49.610;11.016;2024-01-11T13:23:32;99296.63;;;1.06;60.31
22311;BME280;11323;49.610;11.016;2024-01-11T13:28:34;99288.84;;;1.05;60.44
22311;BME280;11323;49.610;11.016;2024-01-11T13:33:36;99288.91;;;1.13;60.13
22311;BME280;11323;49.610;11.016;2024-01-11T13:38:37;99287.78;;;1.15;60.73
22311;BME280;11323;49.610;11.016;2024-01-11T13:43:38;99280.72;;;1.16;60.40
22311;BME280;11323;49.610;11.016;2024-01-11T13:48:39;99268.19;;;1.18;59.93
22311;BME280;11323;49.610;11.016;2024-01-11T13:53:40;99261.91;;;1.19;60.58
22311;BME280;11323;49.610;11.016;2024-01-11T13:58:42;99299.03;;;1.17;60.10
22311;BME280;11323;49.610;11.016;2024-01-11T14:03:45;99302.78;;;1.15;60.70
22311;BME280;11323;49.610;11.016;2024-01-11T14:08:46;99303.63;;;1.15;60.28
22311;BME280;11323;49.610;11.016;2024-01-11T14:13:47;99300.16;;;1.15;60.08
22311;BME280;11323;49.610;11.016;2024-01-11T14:18:48;99308.75;;;1.17;60.22
22311;BME280;11323;49.610;11.016;2024-01-11T14:23:50;99315.97;;;1.15;60.58
22311;BME280;11323;49.610;11.016;2024-01-11T14:28:52;99321.25;;;1.15;60.28
22311;BME280;11323;49.610;11.016;2024-01-11T14:33:55;99323.22;;;1.13;60.14
22311;BME280;11323;49.610;11.016;2024-01-11T14:38:56;99320.28;;;1.16;60.32
22311;BME280;11323;49.610;11.016;2024-01-11T14:43:57;99325.56;;;1.16;60.35
22311;BME280;11323;49.610;11.016;2024-01-11T14:49:00;99319.91;;;1.11;60.52
22311;BME280;11323;49.610;11.016;2024-01-11T14:54:01;99322.88;;;1.08;60.26
22311;BME280;11323;49.610;11.016;2024-01-11T14:59:04;99341.34;;;1.08;60.69
22311;BME280;11323;49.610;11.016;2024-01-11T15:04:05;99333.06;;;1.03;60.31
22311;BME280;11323;49.610;11.016;2024-01-11T15:09:06;99335.00;;;1.01;60.10
22311;BME280;11323;49.610;11.016;2024-01-11T15:14:10;99321.44;;;0.96;60.37
22311;BME280;11323;49.610;11.016;2024-01-11T15:19:12;99320.47;;;0.97;61.05
22311;BME280;11323;49.610;11.016;2024-01-11T15:24:13;99310.03;;;0.95;60.45
22311;BME280;11323;49.610;11.016;2024-01-11T15:29:14;99305.94;;;0.93;61.22
22311;BME280;11323;49.610;11.016;2024-01-11T15:34:15;99294.00;;;0.88;61.28
22311;BME280;11323;49.610;11.016;2024-01-11T15:39:17;99319.03;;;0.84;60.84
22311;BME280;11323;49.610;11.016;2024-01-11T15:44:18;99316.84;;;0.80;61.03
22311;BME280;11323;49.610;11.016;2024-01-11T15:49:19;99328.81;;;0.74;60.97
22311;BME280;11323;49.610;11.016;2024-01-11T15:54:19;99339.69;;;0.71;61.63
22311;BME280;11323;49.610;11.016;2024-01-11T15:59:24;99358.44;;;0.68;61.16
22311;BME280;11323;49.610;11.016;2024-01-11T16:04:24;99362.19;;;0.66;61.11
22311;BME280;11323;49.610;11.016;2024-01-11T16:09:29;99351.09;;;0.62;61.56
22311;BME280;11323;49.610;11.016;2024-01-11T16:14:30;99359.19;;;0.61;61.38
22311;BME280;11323;49.610;11.016;2024-01-11T16:19:31;99353.38;;;0.57;62.25
22311;BME280;11323;49.610;11.016;2024-01-11T16:24:34;99358.13;;;0.54;62.06
22311;BME280;11323;49.610;11.016;2024-01-11T16:29:35;99364.50;;;0.51;62.13
22311;BME280;11323;49.610;11.016;2024-01-11T16:34:38;99363.16;;;0.47;62.20
22311;BME280;11323;49.610;11.016;2024-01-11T16:39:39;99358.19;;;0.44;61.93
22311;BME280;11323;49.610;11.016;2024-01-11T16:44:41;99352.34;;;0.41;61.79
22311;BME280;11323;49.610;11.016;2024-01-11T16:49:42;99341.28;;;0.37;62.47
22311;BME280;11323;49.610;11.016;2024-01-11T16:54:49;99345.19;;;0.33;61.77
22311;BME280;11323;49.610;11.016;2024-01-11T16:59:50;99354.34;;;0.29;62.50
22311;BME280;11323;49.610;11.016;2024-01-11T17:04:51;99359.94;;;0.26;61.78
22311;BME280;11323;49.610;11.016;2024-01-11T17:09:52;99356.78;;;0.23;62.63
22311;BME280;11323;49.610;11.016;2024-01-11T17:14:53;99365.78;;;0.20;62.16
22311;BME280;11323;49.610;11.016;2024-01-11T17:19:54;99355.56;;;0.17;62.65
22311;BME280;11323;49.610;11.016;2024-01-11T17:24:55;99364.72;;;0.13;63.09
22311;BME280;11323;49.610;11.016;2024-01-11T17:29:58;99373.88;;;0.09;62.66
22311;BME280;11323;49.610;11.016;2024-01-11T17:34:59;99368.09;;;0.06;62.33
22311;BME280;11323;49.610;11.016;2024-01-11T17:40:01;99363.94;;;0.03;62.80
22311;BME280;11323;49.610;11.016;2024-01-11T17:45:02;99358.97;;;0.00;62.38
22311;BME280;11323;49.610;11.016;2024-01-11T17:50:05;99347.88;;;-0.04;63.10
22311;BME280;11323;49.610;11.016;2024-01-11T17:55:07;99351.63;;;-0.06;63.14
22311;BME280;11323;49.610;11.016;2024-01-11T18:00:10;99359.81;;;-0.09;62.76
22311;BME280;11323;49.610;11.016;2024-01-11T18:05:13;99365.38;;;-0.12;63.21
22311;BME280;11323;49.610;11.016;2024-01-11T18:10:14;99375.38;;;-0.16;63.20
22311;BME280;11323;49.610;11.016;2024-01-11T18:15:19;99378.44;;;-0.20;62.90
22311;BME280;11323;49.610;11.016;2024-01-11T18:20:20;99383.16;;;-0.24;63.20
22311;BME280;11323;49.610;11.016;2024-01-11T18:25:21;99391.16;;;-0.25;63.64
22311;BME280;11323;49.610;11.016;2024-01-11T18:30:23;99390.78;;;-0.30;62.93
22311;BME280;11323;49.610;11.016;2024-01-11T18:35:24;99388.44;;;-0.33;64.01
22311;BME280;11323;49.610;11.016;2024-01-11T18:40:25;99373.91;;;-0.37;63.53
22311;BME280;11323;49.610;11.016;2024-01-11T18:45:26;99365.31;;;-0.39;63.48
22311;BME280;11323;49.610;11.016;2024-01-11T18:50:27;99364.63;;;-0.41;63.42
22311;BME280;11323;49.610;11.016;2024-01-11T18:55:30;99372.09;;;-0.46;63.61
22311;BME280;11323;49.610;11.016;2024-01-11T19:00:31;99377.66;;;-0.49;63.83
22311;BME280;11323;49.610;11.016;2024-01-11T19:05:32;99376.28;;;-0.53;63.92
22311;BME280;11323;49.610;11.016;2024-01-11T19:10:33;99372.97;;;-0.55;63.61
22311;BME280;11323;49.610;11.016;2024-01-11T19:15:34;99378.53;;;-0.58;63.77
22311;BME280;11323;49.610;11.016;2024-01-11T19:20:36;99384.06;;;-0.61;64.14
22311;BME280;11323;49.610;11.016;2024-01-11T19:25:37;99388.91;;;-0.66;63.99
22311;BME280;11323;49.610;11.016;2024-01-11T19:30:38;99393.50;;;-0.68;64.38
22311;BME280;11323;49.610;11.016;2024-01-11T19:35:40;99396.38;;;-0.71;63.88
22311;BME280;11323;49.610;11.016;2024-01-11T19:40:42;99409.81;;;-0.74;64.52
22311;BME280;11323;49.610;11.016;2024-01-11T19:45:43;99404.84;;;-0.77;63.98
22311;BME280;11323;49.610;11.016;2024-01-11T19:50:44;99408.44;;;-0.78;63.87
22311;BME280;11323;49.610;11.016;2024-01-11T19:55:45;99405.13;;;-0.80;64.33
22311;BME280;11323;49.610;11.016;2024-01-11T20:00:46;99407.34;;;-0.85;64.55
22311;BME280;11323;49.610;11.016;2024-01-11T20:05:47;99412.88;;;-0.88;64.82
22311;BME280;11323;49.610;11.016;2024-01-11T20:10:48;99423.69;;;-0.92;64.83
22311;BME280;11323;49.610;11.016;2024-01-11T20:15:50;99419.66;;;-0.96;64.11
22311;BME280;11323;49.610;11.016;2024-01-11T20:20:51;99433.91;;;-0.98;64.61
22311;BME280;11323;49.610;11.016;2024-01-11T20:25:52;99426.16;;;-1.00;64.92
22311;BME280;11323;49.610;11.016;2024-01-11T20:30:53;99424.75;;;-1.04;64.49
22311;BME280;11323;49.610;11.016;2024-01-11T20:35:55;99434.88;;;-1.09;64.66
22311;BME280;11323;49.610;11.016;2024-01-11T20:40:56;99441.38;;;-1.13;64.57
22311;BME280;11323;49.610;11.016;2024-01-11T20:45:57;99447.03;;;-1.17;64.67
22311;BME280;11323;49.610;11.016;2024-01-11T20:50:58;99452.69;;;-1.22;64.64
22311;BME280;11323;49.610;11.016;2024-01-11T20:56:00;99450.47;;;-1.26;64.99
22311;BME280;11323;49.610;11.016;2024-01-11T21:01:01;99447.53;;;-1.33;64.83
22311;BME280;11323;49.610;11.016;2024-01-11T21:06:02;99452.38;;;-1.38;65.15
22311;BME280;11323;49.610;11.016;2024-01-11T21:11:03;99446.44;;;-1.40;65.10
22311;BME280;11323;49.610;11.016;2024-01-11T21:16:04;99447.66;;;-1.44;65.08
22311;BME280;11323;49.610;11.016;2024-01-11T21:21:05;99448.06;;;-1.48;65.14
22311;BME280;11323;49.610;11.016;2024-01-11T21:26:06;99443.19;;;-1.53;65.15
22311;BME280;11323;49.610;11.016;2024-01-11T21:31:07;99433.22;;;-1.59;65.30
22311;BME280;11323;49.610;11.016;2024-01-11T21:36:08;99439.56;;;-1.61;65.55
22311;BME280;11323;49.610;11.016;2024-01-11T21:41:09;99427.94;;;-1.68;65.37
22311;BME280;11323;49.610;11.016;2024-01-11T21:46:10;99433.06;;;-1.67;65.40
22311;BME280;11323;49.610;11.016;2024-01-11T21:51:11;99435.00;;;-1.69;65.90
22311;BME280;11323;49.610;11.016;2024-01-11T21:56:12;99448.38;;;-1.72;65.72
22311;BME280;11323;49.610;11.016;2024-01-11T22:01:13;99446.16;;;-1.76;65.47
22311;BME280;11323;49.610;11.016;2024-01-11T22:06:14;99453.44;;;-1.80;65.46
22311;BME280;11323;49.610;11.016;2024-01-11T22:11:15;99449.16;;;-1.81;66.30
22311;BME280;11323;49.610;11.016;2024-01-11T22:16:17;99441.69;;;-1.86;65.44
22311;BME280;11323;49.610;11.016;2024-01-11T22:21:18;99455.78;;;-1.87;65.94
22311;BME280;11323;49.610;11.016;2024-01-11T22:26:22;99456.88;;;-1.89;65.60
22311;BME280;11323;49.610;11.016;2024-01-11T22:31:30;99461.88;;;-1.86;65.66
22311;BME280;11323;49.610;11.016;2024-01-11T22:36:31;99458.97;;;-1.83;65.56
22311;BME280;11323;49.610;11.016;2024-01-11T22:41:40;99468.25;;;-1.79;65.90
22311;BME280;11323;49.610;11.016;2024-01-11T22:46:41;99466.22;;;-1.66;65.95
22311;BME280;11323;49.610;11.016;2024-01-11T22:51:42;99471.97;;;-1.51;65.78
22311;BME280;11323;49.610;11.016;2024-01-11T22:56:43;99477.81;;;-1.38;65.82
22311;BME280;11323;49.610;11.016;2024-01-11T23:01:44;99479.78;;;-1.31;65.46
22311;BME280;11323;49.610;11.016;2024-01-11T23:06:45;99468.97;;;-1.28;65.57
22311;BME280;11323;49.610;11.016;2024-01-11T23:11:46;99477.56;;;-1.26;65.42
22311;BME280;11323;49.610;11.016;2024-01-11T23:16:47;99474.84;;;-1.24;65.45
22311;BME280;11323;49.610;11.016;2024-01-11T23:21:48;99472.06;;;-1.23;65.37
22311;BME280;11323;49.610;11.016;2024-01-11T23:26:49;99471.22;;;-1.23;65.42
22311;BME280;11323;49.610;11.016;2024-01-11T23:31:51;99478.13;;;-1.32;65.40
22311;BME280;11323;49.610;11.016;2024-01-11T23:36:52;99474.81;;;-1.34;66.17
22311;BME280;11323;49.610;11.016;2024-01-11T23:41:53;99467.16;;;-1.37;65.80
22311;BME280;11323;49.610;11.016;2024-01-11T23:46:55;99464.53;;;-1.37;65.67
22311;BME280;11323;49.610;11.016;2024-01-11T23:51:56;99464.81;;;-1.40;65.55
22311;BME280;11323;49.610;11.016;2024-01-11T23:56:57;99460.97;;;-1.36;65.93
